createdAt,value
2022-12-08T00:00:36.413Z,3.21
2022-12-08T00:01:36.444Z,3.19
2022-12-08T00:02:36.548Z,3.19
2022-12-08T00:03:36.429Z,3.18
2022-12-08T00:04:36.381Z,3.19
2022-12-08T00:05:36.370Z,3.18
2022-12-08T00:06:36.342Z,3.18
2022-12-08T00:07:36.369Z,3.16
2022-12-08T00:08:36.333Z,3.14
2022-12-08T00:09:38.950Z,3.13
2022-12-08T00:10:51.786Z,3.13
2022-12-08T00:11:37.294Z,3.14
2022-12-08T00:12:36.269Z,3.11
2022-12-08T00:13:36.274Z,3.11
2022-12-08T00:14:36.265Z,3.10
2022-12-08T00:15:36.242Z,3.08
2022-12-08T00:16:36.352Z,3.07
2022-12-08T00:17:37.017Z,3.05
2022-12-08T00:18:36.222Z,3.05
2022-12-08T00:19:36.198Z,3.07
2022-12-08T00:20:36.175Z,3.05
2022-12-08T00:21:36.169Z,3.03
2022-12-08T00:22:36.210Z,3.03
2022-12-08T00:23:36.150Z,3.00
2022-12-08T00:24:36.154Z,2.98
2022-12-08T00:25:36.153Z,3.00
2022-12-08T00:26:36.118Z,3.00
2022-12-08T00:27:36.161Z,3.00
2022-12-08T00:28:36.093Z,3.00
2022-12-08T00:29:36.093Z,2.98
2022-12-08T00:30:36.082Z,2.98
2022-12-08T00:31:36.090Z,2.97
2022-12-08T00:32:36.071Z,2.98
2022-12-08T00:33:36.050Z,2.93
2022-12-08T00:34:36.042Z,2.92
2022-12-08T00:35:41.531Z,2.92
2022-12-08T00:36:37.010Z,2.92
2022-12-08T00:37:36.010Z,2.90
2022-12-08T00:38:36.011Z,2.89
2022-12-08T00:39:35.978Z,2.90
2022-12-08T00:40:35.966Z,2.90
2022-12-08T00:41:35.970Z,2.90
2022-12-08T00:42:35.942Z,2.89
2022-12-08T00:43:35.950Z,2.85
2022-12-08T00:44:35.945Z,2.85
2022-12-08T00:45:35.942Z,2.85
2022-12-08T00:46:35.903Z,2.87
2022-12-08T00:47:35.889Z,2.86
2022-12-08T00:48:35.893Z,2.87
2022-12-08T00:49:35.878Z,2.86
2022-12-08T00:50:35.886Z,2.85
2022-12-08T00:51:35.863Z,2.85
2022-12-08T00:52:35.838Z,2.86
2022-12-08T00:53:35.830Z,2.86
2022-12-08T00:54:35.830Z,2.86
2022-12-08T00:55:35.812Z,2.87
2022-12-08T00:56:35.790Z,2.86
2022-12-08T00:57:35.780Z,2.87
2022-12-08T00:58:35.759Z,2.89
2022-12-08T00:59:35.782Z,2.89
2022-12-08T01:00:35.731Z,2.87
2022-12-08T01:01:35.846Z,2.87
2022-12-08T01:02:35.721Z,2.87
2022-12-08T01:03:35.793Z,2.90
2022-12-08T01:04:35.721Z,2.90
2022-12-08T01:05:35.712Z,2.90
2022-12-08T01:06:35.677Z,2.92
2022-12-08T01:07:35.763Z,2.93
2022-12-08T01:08:35.658Z,2.95
2022-12-08T01:09:35.662Z,2.95
2022-12-08T01:10:35.683Z,2.98
2022-12-08T01:11:35.630Z,2.98
2022-12-08T01:12:35.603Z,3.00
2022-12-08T01:13:35.622Z,3.01
2022-12-08T01:14:35.591Z,3.01
2022-12-08T01:15:35.619Z,3.04
2022-12-08T01:16:35.657Z,3.07
2022-12-08T01:17:35.558Z,3.07
2022-12-08T01:18:35.552Z,3.08
2022-12-08T01:19:35.553Z,3.08
2022-12-08T01:20:35.538Z,3.11
2022-12-08T01:21:35.510Z,3.11
2022-12-08T01:22:35.510Z,3.13
2022-12-08T01:23:35.534Z,3.14
2022-12-08T01:24:35.498Z,3.16
2022-12-08T01:25:35.571Z,3.19
2022-12-08T01:26:35.454Z,3.18
2022-12-08T01:27:35.484Z,3.19
2022-12-08T01:28:35.431Z,3.19
2022-12-08T01:29:35.421Z,3.18
2022-12-08T01:30:35.498Z,3.19
2022-12-08T01:31:35.427Z,3.18
2022-12-08T01:32:35.387Z,3.18
2022-12-08T01:33:35.385Z,3.16
2022-12-08T01:34:35.370Z,3.18
2022-12-08T01:35:35.388Z,3.18
2022-12-08T01:36:35.352Z,3.16
2022-12-08T01:37:35.348Z,3.18
2022-12-08T01:38:35.351Z,3.18
2022-12-08T01:39:35.319Z,3.19
2022-12-08T01:40:35.308Z,3.19
2022-12-08T01:41:35.309Z,3.22
2022-12-08T01:42:35.279Z,3.21
2022-12-08T01:43:35.279Z,3.21
2022-12-08T01:44:35.300Z,3.22
2022-12-08T01:45:35.247Z,3.21
2022-12-08T01:46:35.313Z,3.19
2022-12-08T01:47:35.338Z,3.19
2022-12-08T01:48:35.228Z,3.19
2022-12-08T01:49:35.219Z,3.18
2022-12-08T01:50:35.188Z,3.19
2022-12-08T01:51:35.207Z,3.16
2022-12-08T01:52:35.184Z,3.16
2022-12-08T01:53:35.170Z,3.14
2022-12-08T01:54:35.161Z,3.14
2022-12-08T01:55:35.148Z,3.14
2022-12-08T01:56:35.148Z,3.13
2022-12-08T01:57:35.148Z,3.14
2022-12-08T01:58:35.108Z,3.14
2022-12-08T01:59:35.109Z,3.16
2022-12-08T02:00:35.087Z,3.13
2022-12-08T02:01:35.158Z,3.13
2022-12-08T02:02:35.157Z,3.13
2022-12-08T02:03:35.060Z,3.13
2022-12-08T02:04:35.059Z,3.13
2022-12-08T02:05:35.027Z,3.13
2022-12-08T02:06:35.037Z,3.16
2022-12-08T02:07:35.008Z,3.16
2022-12-08T02:08:35.028Z,3.18
2022-12-08T02:09:34.988Z,3.16
2022-12-08T02:10:34.987Z,3.16
2022-12-08T02:11:34.969Z,3.16
2022-12-08T02:12:34.956Z,3.16
2022-12-08T02:13:34.973Z,3.16
2022-12-08T02:14:34.929Z,3.16
2022-12-08T02:15:35.005Z,3.18
2022-12-08T02:16:34.948Z,3.16
2022-12-08T02:17:34.921Z,3.18
2022-12-08T02:18:34.895Z,3.18
2022-12-08T02:19:34.896Z,3.18
2022-12-08T02:20:34.883Z,3.21
2022-12-08T02:21:34.857Z,3.16
2022-12-08T02:22:34.849Z,3.19
2022-12-08T02:23:34.870Z,3.19
2022-12-08T02:24:34.828Z,3.19
2022-12-08T02:25:34.808Z,3.18
2022-12-08T02:26:34.820Z,3.18
2022-12-08T02:27:34.784Z,3.18
2022-12-08T02:28:34.778Z,3.18
2022-12-08T02:29:34.949Z,3.18
2022-12-08T02:30:34.797Z,3.18
2022-12-08T02:31:34.748Z,3.19
2022-12-08T02:32:34.728Z,3.19
2022-12-08T02:33:34.724Z,3.18
2022-12-08T02:34:34.736Z,3.21
2022-12-08T02:35:34.697Z,3.19
2022-12-08T02:36:34.690Z,3.21
2022-12-08T02:37:34.680Z,3.22
2022-12-08T02:38:34.657Z,3.23
2022-12-08T02:39:34.669Z,3.25
2022-12-08T02:40:34.670Z,3.25
2022-12-08T02:41:34.616Z,3.26
2022-12-08T02:42:34.629Z,3.26
2022-12-08T02:43:34.597Z,3.26
2022-12-08T02:44:34.617Z,3.23
2022-12-08T02:45:34.576Z,3.26
2022-12-08T02:46:34.600Z,3.28
2022-12-08T02:47:34.568Z,3.29
2022-12-08T02:48:34.556Z,3.29
2022-12-08T02:49:34.525Z,3.28
2022-12-08T02:50:34.557Z,3.28
2022-12-08T02:51:34.509Z,3.31
2022-12-08T02:52:34.506Z,3.29
2022-12-08T02:53:34.493Z,3.31
2022-12-08T02:54:34.490Z,3.32
2022-12-08T02:55:34.479Z,3.31
2022-12-08T02:56:34.458Z,3.34
2022-12-08T02:57:34.530Z,3.34
2022-12-08T02:58:34.488Z,3.34
2022-12-08T02:59:34.425Z,3.34
2022-12-08T03:00:34.429Z,3.36
2022-12-08T03:01:34.495Z,3.36
2022-12-08T03:02:34.485Z,3.36
2022-12-08T03:03:34.365Z,3.36
2022-12-08T03:04:34.377Z,3.36
2022-12-08T03:05:34.357Z,3.40
2022-12-08T03:06:34.358Z,3.40
2022-12-08T03:07:34.333Z,3.41
2022-12-08T03:08:34.329Z,3.41
2022-12-08T03:09:34.310Z,3.41
2022-12-08T03:10:34.317Z,3.42
2022-12-08T03:11:34.286Z,3.44
2022-12-08T03:12:34.297Z,3.42
2022-12-08T03:13:34.257Z,3.42
2022-12-08T03:14:34.258Z,3.42
2022-12-08T03:15:34.287Z,3.44
2022-12-08T03:16:34.266Z,3.44
2022-12-08T03:17:34.221Z,3.45
2022-12-08T03:18:34.227Z,3.44
2022-12-08T03:19:34.185Z,3.47
2022-12-08T03:20:34.206Z,3.47
2022-12-08T03:21:34.185Z,3.48
2022-12-08T03:22:34.177Z,3.48
2022-12-08T03:23:34.146Z,3.50
2022-12-08T03:24:34.166Z,3.50
2022-12-08T03:25:34.153Z,3.53
2022-12-08T03:26:34.139Z,3.53
2022-12-08T03:27:34.104Z,3.55
2022-12-08T03:28:34.137Z,3.56
2022-12-08T03:29:34.076Z,3.58
2022-12-08T03:30:34.098Z,3.55
2022-12-08T03:31:34.119Z,3.56
2022-12-08T03:32:34.087Z,3.56
2022-12-08T03:33:34.054Z,3.58
2022-12-08T03:34:34.034Z,3.59
2022-12-08T03:35:34.054Z,3.58
2022-12-08T03:36:34.013Z,3.59
2022-12-08T03:37:33.998Z,3.59
2022-12-08T03:38:33.986Z,3.60
2022-12-08T03:39:33.990Z,3.60
2022-12-08T03:40:33.966Z,3.62
2022-12-08T03:41:33.999Z,3.60
2022-12-08T03:42:33.947Z,3.62
2022-12-08T03:43:33.928Z,3.62
2022-12-08T03:44:33.970Z,3.63
2022-12-08T03:45:33.898Z,3.62
2022-12-08T03:46:34.949Z,3.63
2022-12-08T03:47:33.896Z,3.62
2022-12-08T03:48:33.874Z,3.62
2022-12-08T03:49:33.878Z,3.62
2022-12-08T03:50:33.844Z,3.62
2022-12-08T03:51:33.834Z,3.63
2022-12-08T03:52:33.854Z,3.62
2022-12-08T03:53:33.804Z,3.63
2022-12-08T03:54:33.810Z,3.62
2022-12-08T03:55:33.786Z,3.63
2022-12-08T03:56:33.838Z,3.63
2022-12-08T03:57:33.801Z,3.62
2022-12-08T03:58:37.397Z,3.62
2022-12-08T03:59:33.757Z,3.63
2022-12-08T04:00:33.723Z,3.62
2022-12-08T04:01:33.785Z,3.62
2022-12-08T04:02:33.779Z,3.63
2022-12-08T04:03:33.704Z,3.63
2022-12-08T04:04:33.689Z,3.63
2022-12-08T04:05:33.684Z,3.62
2022-12-08T04:06:33.678Z,3.63
2022-12-08T04:07:33.682Z,3.62
2022-12-08T04:08:33.643Z,3.63
2022-12-08T04:09:33.634Z,3.63
2022-12-08T04:10:33.614Z,3.63
2022-12-08T04:11:33.615Z,3.62
2022-12-08T04:12:33.607Z,3.62
2022-12-08T04:13:33.602Z,3.63
2022-12-08T04:14:33.575Z,3.62
2022-12-08T04:15:33.576Z,3.63
2022-12-08T04:16:33.602Z,3.62
2022-12-08T04:17:33.562Z,3.62
2022-12-08T04:18:33.549Z,3.62
2022-12-08T04:19:33.515Z,3.62
2022-12-08T04:20:33.513Z,3.63
2022-12-08T04:21:33.502Z,3.62
2022-12-08T04:22:33.483Z,3.62
2022-12-08T04:23:33.496Z,3.59
2022-12-08T04:24:33.456Z,3.62
2022-12-08T04:25:33.468Z,3.60
2022-12-08T04:26:33.445Z,3.59
2022-12-08T04:27:33.428Z,3.59
2022-12-08T04:28:33.439Z,3.59
2022-12-08T04:29:33.414Z,3.60
2022-12-08T04:30:33.406Z,3.58
2022-12-08T04:31:33.497Z,3.58
2022-12-08T04:32:33.365Z,3.58
2022-12-08T04:33:33.399Z,3.58
2022-12-08T04:34:33.335Z,3.58
2022-12-08T04:35:33.331Z,3.56
2022-12-08T04:36:33.328Z,3.56
2022-12-08T04:37:33.324Z,3.56
2022-12-08T04:38:33.316Z,3.56
2022-12-08T04:39:33.293Z,3.53
2022-12-08T04:40:33.283Z,3.55
2022-12-08T04:41:33.284Z,3.53
2022-12-08T04:42:33.245Z,3.55
2022-12-08T04:43:33.267Z,3.55
2022-12-08T04:44:33.224Z,3.51
2022-12-08T04:45:33.232Z,3.51
2022-12-08T04:46:33.266Z,3.50
2022-12-08T04:47:33.218Z,3.51
2022-12-08T04:48:33.204Z,3.51
2022-12-08T04:49:33.176Z,3.51
2022-12-08T04:50:33.164Z,3.48
2022-12-08T04:51:33.152Z,3.50
2022-12-08T04:52:33.143Z,3.50
2022-12-08T04:53:33.152Z,3.47
2022-12-08T04:54:33.145Z,3.47
2022-12-08T04:55:33.120Z,3.47
2022-12-08T04:56:33.158Z,3.47
2022-12-08T04:57:33.105Z,3.47
2022-12-08T04:58:33.073Z,3.48
2022-12-08T04:59:33.092Z,3.45
2022-12-08T05:00:33.068Z,3.45
2022-12-08T05:01:33.177Z,3.44
2022-12-08T05:02:33.113Z,3.47
2022-12-08T05:03:33.050Z,3.47
2022-12-08T05:04:33.044Z,3.44
2022-12-08T05:05:33.014Z,3.47
2022-12-08T05:06:32.976Z,3.44
2022-12-08T05:07:32.992Z,3.44
2022-12-08T05:08:33.042Z,3.44
2022-12-08T05:09:32.980Z,3.42
2022-12-08T05:10:32.952Z,3.42
2022-12-08T05:11:32.932Z,3.42
2022-12-08T05:12:32.913Z,3.44
2022-12-08T05:13:32.920Z,3.42
2022-12-08T05:14:32.922Z,3.44
2022-12-08T05:15:32.912Z,3.44
2022-12-08T05:16:32.918Z,3.45
2022-12-08T05:17:32.880Z,3.47
2022-12-08T05:18:32.859Z,3.47
2022-12-08T05:19:32.852Z,3.47
2022-12-08T05:20:32.825Z,3.47
2022-12-08T05:21:33.064Z,3.47
2022-12-08T05:22:32.808Z,3.47
2022-12-08T05:23:32.812Z,3.44
2022-12-08T05:24:32.784Z,3.45
2022-12-08T05:25:32.782Z,3.45
2022-12-08T05:26:32.755Z,3.47
2022-12-08T05:27:32.767Z,3.47
2022-12-08T05:28:41.163Z,3.45
2022-12-08T05:29:33.753Z,3.45
2022-12-08T05:30:32.717Z,3.44
2022-12-08T05:31:32.827Z,3.47
2022-12-08T05:32:32.680Z,3.47
2022-12-08T05:33:32.692Z,3.45
2022-12-08T05:34:32.701Z,3.44
2022-12-08T05:35:32.668Z,3.47
2022-12-08T05:36:32.652Z,3.44
2022-12-08T05:37:32.666Z,3.47
2022-12-08T05:38:32.649Z,3.45
2022-12-08T05:39:32.642Z,3.45
2022-12-08T05:40:32.615Z,3.44
2022-12-08T05:41:32.593Z,3.45
2022-12-08T05:42:32.599Z,3.45
2022-12-08T05:43:32.580Z,3.47
2022-12-08T05:44:32.628Z,3.44
2022-12-08T05:45:32.645Z,3.44
2022-12-08T05:46:32.533Z,3.44
2022-12-08T05:47:36.053Z,3.44
2022-12-08T05:48:32.536Z,3.44
2022-12-08T05:49:32.513Z,3.44
2022-12-08T05:50:32.501Z,3.42
2022-12-08T05:51:32.469Z,3.41
2022-12-08T05:52:32.463Z,3.40
2022-12-08T05:53:32.512Z,3.41
2022-12-08T05:54:32.454Z,3.40
2022-12-08T05:55:32.465Z,3.40
2022-12-08T05:56:32.421Z,3.37
2022-12-08T05:57:32.423Z,3.36
2022-12-08T05:58:32.414Z,3.34
2022-12-08T05:59:32.423Z,3.34
2022-12-08T06:00:32.413Z,3.36
2022-12-08T06:01:32.499Z,3.37
2022-12-08T06:02:32.494Z,3.36
2022-12-08T06:03:32.439Z,3.40
2022-12-08T06:04:32.364Z,3.37
2022-12-08T06:05:32.340Z,3.40
2022-12-08T06:06:32.338Z,3.36
2022-12-08T06:07:32.342Z,3.36
2022-12-08T06:08:32.357Z,3.37
2022-12-08T06:09:32.282Z,3.40
2022-12-08T06:10:32.301Z,3.41
2022-12-08T06:11:32.261Z,3.37
2022-12-08T06:12:32.242Z,3.40
2022-12-08T06:13:32.242Z,3.40
2022-12-08T06:14:32.221Z,3.40
2022-12-08T06:15:32.229Z,3.41
2022-12-08T06:16:32.298Z,3.37
2022-12-08T06:17:32.202Z,3.40
2022-12-08T06:18:33.005Z,3.41
2022-12-08T06:19:32.161Z,3.41
2022-12-08T06:20:32.182Z,3.41
2022-12-08T06:21:32.141Z,3.41
2022-12-08T06:22:32.143Z,3.40
2022-12-08T06:23:32.130Z,3.41
2022-12-08T06:24:32.134Z,3.41
2022-12-08T06:25:32.092Z,3.41
2022-12-08T06:26:32.111Z,3.40
2022-12-08T06:27:32.076Z,3.42
2022-12-08T06:28:32.060Z,3.42
2022-12-08T06:29:32.062Z,3.40
2022-12-08T06:30:32.054Z,3.41
2022-12-08T06:31:32.102Z,3.41
2022-12-08T06:32:32.092Z,3.40
2022-12-08T06:33:32.002Z,3.42
2022-12-08T06:34:32.026Z,3.42
2022-12-08T06:35:31.982Z,3.41
2022-12-08T06:36:31.982Z,3.42
2022-12-08T06:37:31.974Z,3.42
2022-12-08T06:38:31.955Z,3.42
2022-12-08T06:39:31.941Z,3.41
2022-12-08T06:40:31.930Z,3.42
2022-12-08T06:41:31.931Z,3.42
2022-12-08T06:42:31.930Z,3.42
2022-12-08T06:43:31.895Z,3.44
2022-12-08T06:44:31.889Z,3.42
2022-12-08T06:45:31.873Z,3.40
2022-12-08T06:46:32.015Z,3.41
2022-12-08T06:47:31.837Z,3.41
2022-12-08T06:48:31.857Z,3.42
2022-12-08T06:49:31.831Z,3.42
2022-12-08T06:50:31.818Z,3.40
2022-12-08T06:51:31.813Z,3.41
2022-12-08T06:52:31.820Z,3.41
2022-12-08T06:53:31.787Z,3.40
2022-12-08T06:54:31.772Z,3.37
2022-12-08T06:56:32.779Z,3.34
2022-12-08T06:57:31.737Z,3.34
2022-12-08T06:58:31.742Z,3.31
2022-12-08T06:59:31.700Z,3.29
2022-12-08T07:00:31.700Z,3.28
2022-12-08T07:01:31.769Z,3.25
2022-12-08T07:02:31.787Z,3.23
2022-12-08T07:03:31.695Z,3.22
2022-12-08T07:04:31.667Z,3.21
2022-12-08T07:05:31.638Z,3.21
2022-12-08T07:06:31.638Z,3.19
2022-12-08T07:07:31.822Z,3.19
2022-12-08T07:08:31.707Z,3.19
2022-12-08T07:09:31.600Z,3.21
2022-12-08T07:10:31.592Z,3.21
2022-12-08T07:11:31.583Z,3.19
2022-12-08T07:12:31.579Z,3.19
2022-12-08T07:13:31.567Z,3.19
2022-12-08T07:14:31.548Z,3.19
2022-12-08T07:15:31.539Z,3.14
2022-12-08T07:16:31.578Z,3.13
2022-12-08T07:17:31.506Z,3.14
2022-12-08T07:18:31.527Z,3.13
2022-12-08T07:19:31.466Z,3.13
2022-12-08T07:20:31.478Z,3.13
2022-12-08T07:21:31.450Z,3.14
2022-12-08T07:22:31.482Z,3.13
2022-12-08T07:23:31.459Z,3.16
2022-12-08T07:24:31.447Z,3.16
2022-12-08T07:25:31.428Z,3.14
2022-12-08T07:26:31.407Z,3.16
2022-12-08T07:27:31.387Z,3.16
2022-12-08T07:28:31.400Z,3.16
2022-12-08T07:29:31.367Z,3.16
2022-12-08T07:30:31.411Z,3.13
2022-12-08T07:31:31.360Z,3.14
2022-12-08T07:32:31.347Z,3.14
2022-12-08T07:33:31.329Z,3.14
2022-12-08T07:34:31.331Z,3.16
2022-12-08T07:35:31.327Z,3.16
2022-12-08T07:36:31.296Z,3.19
2022-12-08T07:37:31.292Z,3.16
2022-12-08T07:38:31.268Z,3.19
2022-12-08T07:39:31.277Z,3.18
2022-12-08T07:40:31.259Z,3.18
2022-12-08T07:41:31.227Z,3.18
2022-12-08T07:42:31.261Z,3.19
2022-12-08T07:43:31.211Z,3.19
2022-12-08T07:44:31.209Z,3.21
2022-12-08T07:45:31.903Z,3.21
2022-12-08T07:46:31.243Z,3.21
2022-12-08T07:47:31.158Z,3.22
2022-12-08T07:48:31.159Z,3.21
2022-12-08T07:49:31.139Z,3.21
2022-12-08T07:50:31.216Z,3.22
2022-12-08T07:51:31.135Z,3.23
2022-12-08T07:52:31.129Z,3.23
2022-12-08T07:53:31.089Z,3.23
2022-12-08T07:54:31.135Z,3.23
2022-12-08T07:55:31.091Z,3.22
2022-12-08T07:56:31.089Z,3.22
2022-12-08T07:57:31.060Z,3.22
2022-12-08T07:58:31.056Z,3.23
2022-12-08T07:59:31.029Z,3.22
2022-12-08T08:00:31.052Z,3.21
2022-12-08T08:01:31.185Z,3.19
2022-12-08T08:02:31.187Z,3.19
2022-12-08T08:03:30.985Z,3.21
2022-12-08T08:04:31.018Z,3.18
2022-12-08T08:05:30.961Z,3.19
2022-12-08T08:06:30.981Z,3.18
2022-12-08T08:07:30.943Z,3.16
2022-12-08T08:08:31.024Z,3.18
2022-12-08T08:09:30.925Z,3.16
2022-12-08T08:10:30.928Z,3.14
2022-12-08T08:11:30.906Z,3.11
2022-12-08T08:12:32.358Z,3.13
2022-12-08T08:13:30.878Z,3.14
2022-12-08T08:14:30.867Z,3.14
2022-12-08T08:15:31.005Z,3.13
2022-12-08T08:16:36.573Z,3.11
2022-12-08T08:17:32.017Z,3.11
2022-12-08T08:18:30.827Z,3.10
2022-12-08T08:19:30.805Z,3.13
2022-12-08T08:20:30.818Z,3.11
2022-12-08T08:21:45.416Z,3.11
2022-12-08T08:22:31.788Z,3.11
2022-12-08T08:23:30.782Z,3.10
2022-12-08T08:24:30.764Z,3.10
2022-12-08T08:25:30.758Z,3.10
2022-12-08T08:26:30.736Z,3.10
2022-12-08T08:27:30.725Z,3.07
2022-12-08T08:28:30.729Z,3.08
2022-12-08T08:29:30.701Z,3.10
2022-12-08T08:30:30.709Z,3.08
2022-12-08T08:31:30.703Z,3.13
2022-12-08T08:32:30.682Z,3.08
2022-12-08T08:33:30.656Z,3.08
2022-12-08T08:34:30.648Z,3.08
2022-12-08T08:35:30.654Z,3.08
2022-12-08T08:36:30.625Z,3.08
2022-12-08T08:37:30.607Z,3.07
2022-12-08T08:38:30.616Z,3.10
2022-12-08T08:39:30.593Z,3.08
2022-12-08T08:40:30.585Z,3.11
2022-12-08T08:41:30.590Z,3.10
2022-12-08T08:42:30.565Z,3.11
2022-12-08T08:43:37.636Z,3.13
2022-12-08T08:44:31.564Z,3.13
2022-12-08T08:45:30.516Z,3.14
2022-12-08T08:46:30.640Z,3.13
2022-12-08T08:47:30.506Z,3.11
2022-12-08T08:48:30.519Z,3.13
2022-12-08T08:49:30.476Z,3.10
2022-12-08T08:50:35.899Z,3.10
2022-12-08T08:51:31.476Z,3.07
2022-12-08T08:52:30.453Z,3.10
2022-12-08T08:53:30.427Z,3.08
2022-12-08T08:54:30.486Z,3.05
2022-12-08T08:55:30.405Z,3.07
2022-12-08T08:56:30.426Z,3.07
2022-12-08T08:57:30.414Z,3.07
2022-12-08T08:58:30.435Z,3.05
2022-12-08T08:59:30.369Z,3.05
2022-12-08T09:00:30.384Z,3.05
2022-12-08T09:01:30.678Z,3.07
2022-12-08T09:02:30.338Z,3.07
2022-12-08T09:03:30.351Z,3.08
2022-12-08T09:04:30.452Z,3.10
2022-12-08T09:05:30.305Z,3.08
2022-12-08T09:06:30.406Z,3.10
2022-12-08T09:07:30.283Z,3.08
2022-12-08T09:08:30.367Z,3.11
2022-12-08T09:09:30.337Z,3.11
2022-12-08T09:10:30.258Z,3.16
2022-12-08T09:11:30.243Z,3.13
2022-12-08T09:12:30.234Z,3.13
2022-12-08T09:13:30.214Z,3.13
2022-12-08T09:14:30.218Z,3.11
2022-12-08T09:15:30.205Z,3.11
2022-12-08T09:16:30.237Z,3.14
2022-12-08T09:17:30.170Z,3.18
2022-12-08T09:18:30.174Z,3.16
2022-12-08T09:19:30.149Z,3.14
2022-12-08T09:20:30.147Z,3.13
2022-12-08T09:21:30.114Z,3.11
2022-12-08T09:22:30.125Z,3.10
2022-12-08T09:23:35.189Z,3.08
2022-12-08T09:24:31.090Z,3.10
2022-12-08T09:25:30.075Z,3.10
2022-12-08T09:26:30.067Z,3.13
2022-12-08T09:27:30.067Z,3.13
2022-12-08T09:28:30.055Z,3.04
2022-12-08T09:29:35.649Z,3.01
2022-12-08T09:30:31.026Z,3.01
2022-12-08T09:31:30.074Z,2.98
2022-12-08T09:32:30.015Z,2.97
2022-12-08T09:33:29.999Z,2.92
2022-12-08T09:34:29.984Z,2.90
2022-12-08T09:35:29.993Z,2.86
2022-12-08T09:36:29.955Z,2.83
2022-12-08T09:37:29.946Z,2.83
2022-12-08T09:38:29.934Z,2.86
2022-12-08T09:39:29.914Z,2.86
2022-12-08T09:40:29.974Z,2.89
2022-12-08T09:41:36.526Z,2.87
2022-12-08T09:42:30.917Z,2.87
2022-12-08T09:43:29.907Z,2.86
2022-12-08T09:44:29.909Z,2.87
2022-12-08T09:45:29.863Z,2.82
2022-12-08T09:46:29.912Z,2.80
2022-12-08T09:47:35.470Z,2.83
2022-12-08T09:48:30.982Z,2.85
2022-12-08T09:49:29.811Z,2.83
2022-12-08T09:50:29.803Z,2.85
2022-12-08T09:51:29.786Z,2.86
2022-12-08T09:52:29.783Z,2.87
2022-12-08T09:53:35.510Z,2.86
2022-12-08T09:54:30.774Z,2.87
2022-12-08T09:55:29.754Z,2.79
2022-12-08T09:56:29.735Z,2.80
2022-12-08T09:57:29.735Z,2.82
2022-12-08T09:58:29.726Z,2.82
2022-12-08T09:59:29.775Z,2.83
2022-12-08T10:00:29.694Z,2.85
2022-12-08T10:01:29.766Z,2.82
2022-12-08T10:02:29.682Z,2.82
2022-12-08T10:03:29.723Z,2.85
2022-12-08T10:04:29.720Z,2.83
2022-12-08T10:05:29.690Z,2.80
2022-12-08T10:06:29.642Z,2.82
2022-12-08T10:07:29.615Z,2.86
2022-12-08T10:08:29.722Z,2.89
2022-12-08T10:09:29.592Z,2.90
2022-12-08T10:10:29.603Z,2.90
2022-12-08T10:11:29.573Z,2.87
2022-12-08T10:12:29.563Z,2.90
2022-12-08T10:13:29.544Z,2.92
2022-12-08T10:14:29.563Z,2.92
2022-12-08T10:15:29.543Z,2.93
2022-12-08T10:16:30.289Z,2.90
2022-12-08T10:17:29.504Z,2.92
2022-12-08T10:18:29.511Z,2.93
2022-12-08T10:19:29.472Z,2.85
2022-12-08T10:20:29.483Z,2.80
2022-12-08T10:21:29.463Z,2.83
2022-12-08T10:22:29.474Z,2.85
2022-12-08T10:23:29.446Z,2.85
2022-12-08T10:24:29.443Z,2.83
2022-12-08T10:25:29.412Z,2.83
2022-12-08T10:26:29.424Z,2.86
2022-12-08T10:27:29.397Z,2.90
2022-12-08T10:28:29.393Z,2.90
2022-12-08T10:29:29.363Z,2.93
2022-12-08T10:30:29.363Z,2.95
2022-12-08T10:31:29.419Z,2.92
2022-12-08T10:32:29.332Z,2.93
2022-12-08T10:33:29.423Z,2.92
2022-12-08T10:34:29.315Z,2.95
2022-12-08T10:35:29.311Z,2.97
2022-12-08T10:36:29.323Z,2.98
2022-12-08T10:37:29.299Z,3.03
2022-12-08T10:38:29.273Z,3.04
2022-12-08T10:39:29.643Z,3.07
2022-12-08T10:40:29.251Z,3.10
2022-12-08T10:41:29.231Z,3.16
2022-12-08T10:42:29.251Z,3.14
2022-12-08T10:43:29.215Z,3.13
2022-12-08T10:44:29.195Z,3.16
2022-12-08T10:45:29.194Z,3.13
2022-12-08T10:46:29.279Z,3.14
2022-12-08T10:47:29.183Z,3.11
2022-12-08T10:48:29.160Z,3.10
2022-12-08T10:49:29.151Z,3.08
2022-12-08T10:50:29.134Z,3.08
2022-12-08T10:51:29.131Z,3.10
2022-12-08T10:52:29.127Z,3.10
2022-12-08T10:53:29.120Z,3.16
2022-12-08T10:54:29.080Z,3.19
2022-12-08T10:55:29.080Z,3.22
2022-12-08T10:56:29.071Z,3.21
2022-12-08T10:57:29.072Z,3.22
2022-12-08T10:58:29.072Z,3.23
2022-12-08T10:59:29.055Z,3.21
2022-12-08T11:00:29.206Z,3.21
2022-12-08T11:01:29.081Z,3.18
2022-12-08T11:02:29.073Z,3.19
2022-12-08T11:03:28.992Z,3.21
2022-12-08T11:04:28.992Z,3.23
2022-12-08T11:05:28.973Z,3.22
2022-12-08T11:06:28.954Z,3.22
2022-12-08T11:07:28.968Z,3.25
2022-12-08T11:08:29.027Z,3.23
2022-12-08T11:09:28.946Z,3.25
2022-12-08T11:10:28.902Z,3.23
2022-12-08T11:11:29.578Z,3.25
2022-12-08T11:12:28.898Z,3.26
2022-12-08T11:13:28.890Z,3.26
2022-12-08T11:14:28.892Z,3.29
2022-12-08T11:15:28.889Z,3.31
2022-12-08T11:16:28.898Z,3.28
2022-12-08T11:17:28.831Z,3.31
2022-12-08T11:18:28.818Z,3.31
2022-12-08T11:19:28.825Z,3.28
2022-12-08T11:20:28.810Z,3.28
2022-12-08T11:21:28.802Z,3.25
2022-12-08T11:22:28.773Z,3.25
2022-12-08T11:23:28.762Z,3.22
2022-12-08T11:24:31.184Z,3.16
2022-12-08T11:25:28.758Z,3.18
2022-12-08T11:26:28.725Z,3.19
2022-12-08T11:27:28.732Z,3.21
2022-12-08T11:28:28.720Z,3.14
2022-12-08T11:29:28.724Z,3.13
2022-12-08T11:30:28.697Z,3.11
2022-12-08T11:31:28.777Z,3.13
2022-12-08T11:32:28.669Z,3.10
2022-12-08T11:33:28.661Z,3.13
2022-12-08T11:34:28.742Z,3.14
2022-12-08T11:35:28.640Z,3.16
2022-12-08T11:36:28.732Z,3.18
2022-12-08T11:37:34.312Z,3.18
2022-12-08T11:38:29.601Z,3.16
2022-12-08T11:39:28.597Z,3.14
2022-12-08T11:40:28.569Z,3.11
2022-12-08T11:41:28.570Z,3.14
2022-12-08T11:42:28.551Z,3.18
2022-12-08T11:43:28.546Z,3.18
2022-12-08T11:44:28.520Z,3.19
2022-12-08T11:45:28.549Z,3.13
2022-12-08T11:46:28.563Z,3.11
2022-12-08T11:47:28.497Z,3.07
2022-12-08T11:48:28.486Z,3.05
2022-12-08T11:49:28.470Z,3.08
2022-12-08T11:50:28.498Z,3.10
2022-12-08T11:51:28.450Z,3.10
2022-12-08T11:52:28.446Z,3.05
2022-12-08T11:53:28.449Z,3.05
2022-12-08T11:54:28.416Z,3.04
2022-12-08T11:55:29.626Z,3.07
2022-12-08T11:56:28.409Z,3.08
2022-12-08T11:57:28.389Z,3.10
2022-12-08T11:58:28.426Z,3.10
2022-12-08T11:59:28.357Z,3.13
2022-12-08T12:00:28.338Z,3.14
2022-12-08T12:01:28.362Z,3.16
2022-12-08T12:02:28.370Z,3.16
2022-12-08T12:03:28.375Z,3.19
2022-12-08T12:04:28.299Z,3.19
2022-12-08T12:05:40.141Z,3.21
2022-12-08T12:07:29.257Z,3.21
2022-12-08T12:08:28.306Z,3.21
2022-12-08T12:09:28.264Z,3.22
2022-12-08T12:10:28.238Z,3.21
2022-12-08T12:11:28.226Z,3.22
2022-12-08T12:12:28.219Z,3.21
2022-12-08T12:13:28.218Z,3.16
2022-12-08T12:14:28.208Z,3.16
2022-12-08T12:15:28.190Z,3.14
2022-12-08T12:16:28.251Z,3.13
2022-12-08T12:17:28.158Z,3.10
2022-12-08T12:18:28.150Z,3.05
2022-12-08T12:19:28.146Z,3.03
2022-12-08T12:20:28.130Z,3.04
2022-12-08T12:21:28.119Z,3.08
2022-12-08T12:22:28.127Z,3.10
2022-12-08T12:23:28.086Z,3.05
2022-12-08T12:24:32.830Z,3.03
2022-12-08T12:25:29.067Z,3.03
2022-12-08T12:26:28.078Z,3.01
2022-12-08T12:27:28.078Z,3.03
2022-12-08T12:28:28.079Z,3.03
2022-12-08T12:29:28.019Z,3.03
2022-12-08T12:30:28.055Z,3.04
2022-12-08T12:31:28.018Z,3.03
2022-12-08T12:32:28.059Z,3.00
2022-12-08T12:33:28.007Z,3.01
2022-12-08T12:34:28.007Z,3.03
2022-12-08T12:35:27.966Z,3.03
2022-12-08T12:36:28.055Z,3.04
2022-12-08T12:37:27.926Z,3.07
2022-12-08T12:38:27.932Z,3.01
2022-12-08T12:39:27.927Z,3.01
2022-12-08T12:40:27.899Z,3.03
2022-12-08T12:41:27.886Z,3.04
2022-12-08T12:42:27.866Z,3.07
2022-12-08T12:43:27.898Z,3.13
2022-12-08T12:44:27.855Z,3.18
2022-12-08T12:45:27.846Z,3.14
2022-12-08T12:46:27.878Z,3.13
2022-12-08T12:47:27.831Z,3.16
2022-12-08T12:48:27.815Z,3.18
2022-12-08T12:49:27.815Z,3.19
2022-12-08T12:50:27.793Z,3.18
2022-12-08T12:51:27.786Z,3.21
2022-12-08T12:52:27.775Z,3.23
2022-12-08T12:53:27.755Z,3.23
2022-12-08T12:54:27.760Z,3.26
2022-12-08T12:55:27.719Z,3.29
2022-12-08T12:56:27.715Z,3.32
2022-12-08T12:57:27.715Z,3.34
2022-12-08T12:58:27.687Z,3.31
2022-12-08T12:59:27.715Z,3.31
2022-12-08T13:00:27.677Z,3.36
2022-12-08T13:01:27.714Z,3.36
2022-12-08T13:02:27.712Z,3.37
2022-12-08T13:03:27.636Z,3.37
2022-12-08T13:04:27.625Z,3.36
2022-12-08T13:05:27.644Z,3.37
2022-12-08T13:06:27.596Z,3.37
2022-12-08T13:07:27.608Z,3.36
2022-12-08T13:08:27.639Z,3.37
2022-12-08T13:09:27.589Z,3.36
2022-12-08T13:10:27.588Z,3.36
2022-12-08T13:11:27.581Z,3.40
2022-12-08T13:12:27.536Z,3.37
2022-12-08T13:13:27.548Z,3.32
2022-12-08T13:14:27.528Z,3.32
2022-12-08T13:15:27.503Z,3.34
2022-12-08T13:16:27.560Z,3.37
2022-12-08T13:17:27.484Z,3.37
2022-12-08T13:18:27.459Z,3.36
2022-12-08T13:19:27.689Z,3.37
2022-12-08T13:20:27.448Z,3.41